Time;durP1;ratioP1;P1;durP2;ratioP2;P2;SDS_P1;SDS_P2;PMS_P1;PMS_P2;Temp;Humidity;BMP_temperature;BMP_pressure;BME280_temperature;BME280_humidity;BME280_pressure;Samples;Min_cycle;Max_cycle;Signal;HPM_P1;HPM_P2
2022/02/19 00:00:09;;;;;;;6.27;1.93;;;6.30;87.30;;;;;;5119427;28;20765;-44
2022/02/19 00:02:35;;;;;;;4.50;1.70;;;6.30;86.70;;;;;;5119567;28;20919;-45
2022/02/19 00:05:01;;;;;;;7.27;1.80;;;6.30;86.90;;;;;;5099666;28;20512;-44
2022/02/19 00:07:27;;;;;;;7.47;2.13;;;6.30;86.50;;;;;;5119521;28;20413;-45
2022/02/19 00:09:53;;;;;;;7.67;2.27;;;6.30;86.10;;;;;;5115838;28;20521;-44
2022/02/19 00:12:19;;;;;;;7.67;3.27;;;6.30;86.00;;;;;;5098986;28;20605;-44
2022/02/19 00:14:44;;;;;;;5.13;1.17;;;6.30;85.70;;;;;;5097925;28;20453;-45
2022/02/19 00:17:10;;;;;;;5.70;1.67;;;6.40;85.50;;;;;;5118019;28;20222;-45
2022/02/19 00:19:36;;;;;;;5.40;2.13;;;6.30;84.90;;;;;;5116529;28;20180;-44
2022/02/19 00:22:02;;;;;;;11.90;1.70;;;6.30;84.40;;;;;;5117302;28;20237;-44
2022/02/19 00:24:28;;;;;;;6.77;1.73;;;6.40;84.00;;;;;;5116539;28;20575;-45
2022/02/19 00:26:54;;;;;;;6.33;2.03;;;6.30;83.60;;;;;;5118693;28;20180;-45
2022/02/19 00:29:20;;;;;;;5.70;2.27;;;6.30;83.20;;;;;;5100458;28;20289;-45
2022/02/19 00:31:46;;;;;;;11.80;2.80;;;6.30;82.90;;;;;;5119998;28;20507;-50
2022/02/19 00:34:11;;;;;;;4.80;2.33;;;6.30;81.90;;;;;;5118039;28;20453;-44
2022/02/19 00:36:37;;;;;;;11.20;1.93;;;6.40;81.00;;;;;;5119292;28;20245;-44
2022/02/19 00:39:04;;;;;;;6.07;2.13;;;6.40;80.70;;;;;;5118137;28;20198;-45
2022/02/19 00:41:30;;;;;;;3.87;1.37;;;6.30;81.00;;;;;;5118288;28;20188;-45
2022/02/19 00:43:57;;;;;;;5.20;2.00;;;6.40;79.90;;;;;;5117413;28;20515;-45
2022/02/19 00:46:23;;;;;;;5.80;1.80;;;6.40;80.00;;;;;;5119132;28;20961;-44
2022/02/19 00:48:49;;;;;;;10.70;2.33;;;6.40;79.90;;;;;;5118036;28;20420;-45
2022/02/19 00:51:15;;;;;;;10.50;1.80;;;6.40;78.70;;;;;;5119402;28;20409;-44
2022/02/19 00:53:41;;;;;;;7.67;1.43;;;6.40;78.40;;;;;;5118536;28;20243;-44
2022/02/19 00:56:09;;;;;;;6.53;1.80;;;6.40;77.60;;;;;;5119417;28;20499;-45
2022/02/19 00:58:38;;;;;;;8.17;3.17;;;6.50;77.70;;;;;;5118595;28;20514;-44
2022/02/19 01:01:04;;;;;;;5.30;1.30;;;6.50;77.90;;;;;;5119500;28;20426;-44
2022/02/19 01:03:31;;;;;;;5.03;1.30;;;6.50;78.50;;;;;;5119606;28;20410;-45
2022/02/19 01:05:57;;;;;;;5.27;1.50;;;6.40;78.30;;;;;;5117340;28;20493;-44
2022/02/19 01:08:23;;;;;;;3.67;1.47;;;6.50;78.60;;;;;;5118785;28;20472;-45
2022/02/19 01:10:49;;;;;;;6.60;1.73;;;6.40;79.10;;;;;;5118352;28;20433;-45
2022/02/19 01:13:14;;;;;;;3.83;1.70;;;6.40;79.30;;;;;;5119352;28;20406;-44
2022/02/19 01:15:42;;;;;;;8.60;1.70;;;6.40;79.00;;;;;;5118011;28;20655;-45
2022/02/19 01:18:08;;;;;;;7.20;2.00;;;6.30;78.30;;;;;;5118953;28;20208;-44
2022/02/19 01:20:34;;;;;;;7.50;3.27;;;6.30;78.50;;;;;;5117564;28;20524;-44
2022/02/19 01:23:00;;;;;;;6.17;1.60;;;6.40;77.90;;;;;;5119125;28;20402;-44
2022/02/19 01:25:25;;;;;;;4.90;1.80;;;6.30;76.50;;;;;;5117213;28;20445;-45
2022/02/19 01:27:51;;;;;;;9.00;2.47;;;6.30;75.50;;;;;;5119308;28;20459;-45
2022/02/19 01:30:17;;;;;;;6.97;1.50;;;6.30;75.80;;;;;;5117700;28;20188;-45
2022/02/19 01:32:43;;;;;;;6.10;2.10;;;6.30;75.10;;;;;;5119216;28;20231;-45
2022/02/19 01:35:08;;;;;;;6.00;1.80;;;6.30;75.50;;;;;;5117852;28;20487;-45
2022/02/19 01:37:34;;;;;;;9.03;2.23;;;6.30;75.90;;;;;;5118714;28;20211;-45
2022/02/19 01:39:59;;;;;;;10.17;2.73;;;6.30;75.50;;;;;;5116977;28;20521;-45
2022/02/19 01:42:27;;;;;;;5.50;1.60;;;6.30;75.50;;;;;;5118863;28;20524;-45
2022/02/19 01:44:53;;;;;;;8.47;1.67;;;6.20;74.90;;;;;;5117531;28;20279;-45
2022/02/19 01:47:19;;;;;;;4.53;1.53;;;6.20;74.70;;;;;;5118617;28;20826;-45
2022/02/19 01:49:45;;;;;;;6.23;1.70;;;6.20;74.60;;;;;;5081808;28;20464;-45
2022/02/19 01:52:12;;;;;;;5.23;1.53;;;6.20;74.90;;;;;;5118402;28;20414;-45
2022/02/19 01:54:41;;;;;;;6.90;2.33;;;6.20;74.70;;;;;;5117182;28;20521;-45
2022/02/19 01:57:07;;;;;;;7.77;1.83;;;6.20;75.40;;;;;;5118252;28;20476;-45
2022/02/19 01:59:37;;;;;;;7.50;2.00;;;6.10;75.30;;;;;;5117707;28;20426;-45
2022/02/19 02:02:03;;;;;;;7.37;1.80;;;6.10;74.80;;;;;;5118709;28;20421;-45
2022/02/19 02:04:30;;;;;;;6.00;2.47;;;6.10;75.30;;;;;;5117536;28;20423;-45
2022/02/19 02:06:56;;;;;;;9.63;2.20;;;6.00;75.90;;;;;;5118834;28;20413;-45
2022/02/19 02:09:22;;;;;;;6.00;3.10;;;6.00;76.00;;;;;;5118699;28;20767;-45
2022/02/19 02:11:48;;;;;;;6.30;1.63;;;6.00;75.80;;;;;;5098189;28;20782;-45
2022/02/19 02:14:14;;;;;;;9.47;2.70;;;6.00;75.20;;;;;;5117728;28;20414;-46
2022/02/19 02:16:41;;;;;;;6.97;1.83;;;6.00;75.70;;;;;;5100393;28;20223;-45
2022/02/19 02:19:08;;;;;;;6.30;1.63;;;5.90;75.50;;;;;;5115632;28;20187;-45
2022/02/19 02:21:38;;;;;;;8.70;1.90;;;5.90;75.70;;;;;;5116382;28;20450;-45
2022/02/19 02:24:04;;;;;;;5.90;1.77;;;5.90;76.30;;;;;;5100244;28;20472;-45
2022/02/19 02:26:30;;;;;;;6.10;2.10;;;5.90;76.80;;;;;;5118393;28;20754;-45
2022/02/19 02:28:55;;;;;;;12.10;2.97;;;5.80;77.30;;;;;;5099243;28;20479;-45
2022/02/19 02:31:22;;;;;;;8.80;2.53;;;5.80;78.00;;;;;;5117913;28;20184;-45
2022/02/19 02:33:48;;;;;;;5.73;2.00;;;5.80;78.50;;;;;;5117388;28;20200;-45
2022/02/19 02:36:15;;;;;;;7.90;2.00;;;5.80;78.30;;;;;;5099924;28;20511;-45
2022/02/19 02:38:41;;;;;;;6.97;1.87;;;5.70;79.20;;;;;;5117104;28;20715;-45
2022/02/19 02:41:06;;;;;;;12.67;2.73;;;5.70;78.40;;;;;;5118005;28;20415;-46
2022/02/19 02:43:32;;;;;;;7.60;2.30;;;5.70;78.20;;;;;;5116740;28;20516;-46
2022/02/19 02:45:58;;;;;;;5.87;2.23;;;5.70;77.30;;;;;;5118068;28;20436;-45
2022/02/19 02:48:23;;;;;;;8.00;2.17;;;5.70;77.10;;;;;;5116869;28;20597;-45
2022/02/19 02:50:50;;;;;;;6.73;1.40;;;5.70;76.40;;;;;;5117776;28;20184;-45
2022/02/19 02:53:17;;;;;;;7.17;1.70;;;5.70;76.30;;;;;;5116816;28;20176;-45
2022/02/19 02:55:42;;;;;;;8.60;1.77;;;5.70;77.50;;;;;;5118086;28;20491;-45
2022/02/19 02:58:08;;;;;;;8.43;2.00;;;5.70;77.10;;;;;;5116954;28;20480;-46
2022/02/19 03:00:33;;;;;;;5.23;1.83;;;5.60;77.20;;;;;;5117899;28;20249;-45
2022/02/19 03:02:59;;;;;;;12.17;1.80;;;5.60;78.00;;;;;;5116435;28;20177;-45
2022/02/19 03:05:25;;;;;;;6.80;2.70;;;5.60;78.00;;;;;;5117861;28;20467;-45
2022/02/19 03:07:51;;;;;;;8.20;2.20;;;5.60;77.90;;;;;;5116726;28;20609;-46
2022/02/19 03:10:18;;;;;;;8.10;2.13;;;5.60;77.30;;;;;;5117638;28;20414;-45
2022/02/19 03:12:44;;;;;;;7.27;2.00;;;5.60;77.00;;;;;;5115927;28;20443;-45
2022/02/19 03:15:10;;;;;;;8.87;1.77;;;5.50;76.70;;;;;;5117254;28;20406;-45
2022/02/19 03:17:39;;;;;;;8.50;2.00;;;5.60;75.70;;;;;;5098037;28;20839;-45
2022/02/19 03:20:06;;;;;;;7.30;1.93;;;5.60;75.60;;;;;;5117446;28;20414;-46
2022/02/19 03:22:32;;;;;;;8.50;2.20;;;5.70;75.60;;;;;;5116688;28;20437;-45
2022/02/19 03:24:57;;;;;;;6.53;1.97;;;5.60;75.70;;;;;;5117854;28;20406;-45
2022/02/19 03:27:23;;;;;;;6.63;2.40;;;5.60;76.30;;;;;;5116224;28;20819;-46
2022/02/19 03:29:49;;;;;;;5.50;2.40;;;5.60;76.00;;;;;;5117742;28;20176;-46
2022/02/19 03:32:14;;;;;;;4.47;1.20;;;5.60;75.80;;;;;;5118614;28;20238;-45
2022/02/19 03:34:40;;;;;;;6.70;2.00;;;5.60;75.70;;;;;;5119467;28;20563;-45
2022/02/19 03:37:06;;;;;;;5.60;2.03;;;5.60;75.50;;;;;;5120992;28;20216;-45
2022/02/19 03:39:31;;;;;;;6.10;1.90;;;5.60;74.80;;;;;;5120206;28;20199;-45
2022/02/19 03:41:57;;;;;;;6.93;1.63;;;5.50;74.80;;;;;;5121089;28;20491;-46
2022/02/19 03:44:23;;;;;;;4.33;1.67;;;5.60;74.90;;;;;;5121087;28;20517;-46
2022/02/19 03:46:49;;;;;;;5.03;1.43;;;5.60;74.10;;;;;;5119908;28;20487;-46
2022/02/19 03:49:14;;;;;;;9.03;1.90;;;5.50;73.50;;;;;;5120855;28;20415;-45
2022/02/19 03:51:40;;;;;;;5.53;2.60;;;5.50;73.70;;;;;;5119720;28;20229;-45
2022/02/19 03:54:06;;;;;;;9.03;2.60;;;5.50;74.20;;;;;;5120661;28;20190;-46
2022/02/19 03:56:32;;;;;;;6.07;2.00;;;5.50;74.00;;;;;;5121045;28;20316;-46
2022/02/19 03:58:58;;;;;;;6.10;1.87;;;5.40;74.20;;;;;;5120871;28;20200;-45
2022/02/19 04:01:24;;;;;;;6.20;1.80;;;5.40;74.20;;;;;;5120493;28;20410;-46
2022/02/19 04:03:49;;;;;;;7.80;1.53;;;5.40;73.90;;;;;;5101487;28;20202;-46
2022/02/19 04:06:15;;;;;;;6.87;2.10;;;5.40;73.40;;;;;;5103140;28;20532;-45
2022/02/19 04:08:41;;;;;;;5.23;1.63;;;5.30;73.20;;;;;;5119671;28;20188;-45
2022/02/19 04:11:06;;;;;;;6.63;2.17;;;5.20;72.80;;;;;;5120698;28;20433;-45
2022/02/19 04:13:32;;;;;;;4.90;1.80;;;5.20;72.60;;;;;;5119474;28;20177;-45
2022/02/19 04:15:57;;;;;;;7.90;1.70;;;5.20;72.60;;;;;;5120890;28;20203;-45
2022/02/19 04:18:23;;;;;;;5.60;2.07;;;5.20;72.90;;;;;;5118220;28;20356;-45
2022/02/19 04:20:48;;;;;;;9.57;2.30;;;5.10;73.10;;;;;;5119403;28;20180;-45
2022/02/19 04:23:14;;;;;;;5.50;1.30;;;5.10;72.80;;;;;;5118016;28;20277;-45
2022/02/19 04:25:40;;;;;;;5.77;1.70;;;5.10;72.50;;;;;;5119519;28;20172;-46
2022/02/19 04:28:08;;;;;;;7.90;1.87;;;5.10;72.20;;;;;;5118096;28;20192;-45
2022/02/19 04:30:34;;;;;;;11.87;2.00;;;5.10;71.40;;;;;;5119190;28;20267;-45
2022/02/19 04:32:59;;;;;;;4.43;1.60;;;5.00;71.00;;;;;;5083653;28;20485;-45
2022/02/19 04:35:27;;;;;;;4.33;1.47;;;4.90;71.30;;;;;;5120287;28;20402;-45
2022/02/19 04:37:52;;;;;;;6.50;1.47;;;4.90;71.10;;;;;;5118760;28;20224;-45
2022/02/19 04:40:18;;;;;;;4.20;1.27;;;4.90;71.40;;;;;;5120292;28;20415;-45
2022/02/19 04:42:44;;;;;;;5.20;1.47;;;4.80;70.90;;;;;;5120091;28;20200;-46
2022/02/19 04:45:10;;;;;;;8.80;2.67;;;4.90;70.90;;;;;;5101281;28;20188;-45
2022/02/19 04:47:36;;;;;;;6.83;1.60;;;4.80;70.90;;;;;;5119734;28;20412;-45
2022/02/19 04:50:04;;;;;;;7.90;2.73;;;4.80;71.30;;;;;;5118761;28;20764;-45
2022/02/19 04:52:30;;;;;;;4.83;1.77;;;4.70;71.40;;;;;;5119987;28;20249;-45
2022/02/19 04:54:56;;;;;;;4.67;1.40;;;4.70;71.10;;;;;;5118512;28;20454;-46
2022/02/19 04:57:21;;;;;;;4.17;1.17;;;4.80;72.40;;;;;;5119611;28;20769;-46
2022/02/19 04:59:47;;;;;;;12.90;2.10;;;4.80;72.40;;;;;;5118246;28;20255;-45
2022/02/19 05:02:12;;;;;;;7.33;2.00;;;4.80;72.70;;;;;;5119740;28;20467;-44
2022/02/19 05:04:38;;;;;;;10.53;2.20;;;4.70;73.10;;;;;;5116889;28;20180;-43
2022/02/19 05:07:04;;;;;;;8.50;2.50;;;4.70;73.50;;;;;;5117874;28;20168;-42
2022/02/19 05:09:29;;;;;;;5.93;1.93;;;4.70;73.80;;;;;;5118404;28;20176;-43
2022/02/19 05:11:55;;;;;;;6.40;2.00;;;4.60;74.20;;;;;;5117178;28;20453;-42
2022/02/19 05:14:21;;;;;;;8.33;1.43;;;4.50;73.70;;;;;;5118657;28;20192;-42
2022/02/19 05:16:47;;;;;;;9.53;2.23;;;4.50;72.80;;;;;;5116803;28;20636;-42
2022/02/19 05:19:12;;;;;;;7.73;1.53;;;4.50;72.80;;;;;;5118148;28;20505;-43
2022/02/19 05:21:38;;;;;;;7.90;2.50;;;4.50;72.20;;;;;;5117719;28;20184;-43
2022/02/19 05:24:04;;;;;;;9.17;1.73;;;4.40;72.10;;;;;;5118087;28;20246;-42
2022/02/19 05:26:29;;;;;;;7.43;1.67;;;4.50;71.70;;;;;;5117640;28;20184;-44
2022/02/19 05:28:55;;;;;;;5.03;1.53;;;4.40;71.70;;;;;;5119114;28;20263;-42
2022/02/19 05:31:21;;;;;;;6.90;2.00;;;4.30;71.90;;;;;;5118250;28;20184;-42
2022/02/19 05:33:46;;;;;;;5.83;1.50;;;4.30;71.80;;;;;;5120328;28;20179;-43
2022/02/19 05:36:12;;;;;;;6.77;1.77;;;4.40;71.60;;;;;;5117564;28;20236;-42
2022/02/19 05:38:38;;;;;;;8.83;1.77;;;4.40;71.80;;;;;;5118071;28;20624;-43
2022/02/19 05:41:03;;;;;;;5.80;1.57;;;4.30;71.90;;;;;;5116422;28;20219;-43
2022/02/19 05:43:29;;;;;;;3.77;1.80;;;4.30;72.00;;;;;;5116325;28;20183;-43
2022/02/19 05:45:54;;;;;;;4.87;1.80;;;4.30;72.00;;;;;;5115544;28;20203;-41
2022/02/19 05:48:20;;;;;;;6.53;1.57;;;4.40;72.00;;;;;;5116960;28;20216;-42
2022/02/19 05:50:46;;;;;;;5.63;1.60;;;4.40;71.90;;;;;;5115917;28;20188;-43
2022/02/19 05:53:12;;;;;;;7.77;1.97;;;4.30;71.70;;;;;;5117848;28;20175;-44
2022/02/19 05:55:39;;;;;;;5.90;1.57;;;4.20;71.90;;;;;;5115873;28;20430;-43
2022/02/19 05:58:04;;;;;;;5.83;1.47;;;4.20;72.10;;;;;;5118921;28;20720;-42
2022/02/19 06:00:30;;;;;;;5.50;1.37;;;4.20;72.10;;;;;;5116982;28;20426;-42
2022/02/19 06:02:55;;;;;;;7.90;1.90;;;4.10;71.90;;;;;;5099415;28;20191;-43
2022/02/19 06:05:23;;;;;;;5.60;1.40;;;4.10;71.70;;;;;;5117532;28;20562;-42
2022/02/19 06:07:48;;;;;;;7.40;1.73;;;4.10;71.70;;;;;;5115041;28;20253;-42
2022/02/19 06:10:14;;;;;;;9.60;2.47;;;4.20;72.20;;;;;;5118225;28;20414;-45
2022/02/19 06:12:40;;;;;;;6.33;1.80;;;4.10;72.10;;;;;;5099545;28;20279;-44
2022/02/19 06:15:07;;;;;;;5.57;1.50;;;4.10;72.10;;;;;;5099487;28;20402;-44
2022/02/19 06:17:33;;;;;;;4.50;1.10;;;4.00;72.30;;;;;;5117439;28;20469;-43
2022/02/19 06:19:59;;;;;;;4.90;1.17;;;4.00;72.40;;;;;;5118148;28;20402;-43
2022/02/19 06:22:25;;;;;;;5.13;1.43;;;4.00;72.30;;;;;;5116507;28;20504;-42
2022/02/19 06:24:51;;;;;;;5.50;1.70;;;4.00;72.90;;;;;;5116182;28;20425;-42
2022/02/19 06:27:16;;;;;;;5.33;1.73;;;4.00;72.90;;;;;;5115635;28;20429;-43
2022/02/19 06:29:42;;;;;;;5.57;1.47;;;3.90;73.10;;;;;;5114275;28;20440;-44
2022/02/19 06:32:09;;;;;;;6.37;1.40;;;3.90;73.20;;;;;;5115914;28;20260;-43
2022/02/19 06:34:34;;;;;;;5.07;1.40;;;3.90;73.40;;;;;;5112740;28;20196;-42
2022/02/19 06:37:00;;;;;;;5.93;1.60;;;3.80;73.20;;;;;;5114084;28;20800;-44
2022/02/19 06:39:26;;;;;;;5.13;1.47;;;3.90;73.20;;;;;;5114398;28;20608;-43
2022/02/19 06:41:51;;;;;;;3.80;1.40;;;3.90;73.00;;;;;;5114342;28;20279;-45
2022/02/19 06:44:17;;;;;;;3.90;1.27;;;4.00;73.10;;;;;;5113622;28;20214;-43
2022/02/19 06:46:43;;;;;;;3.00;1.30;;;4.00;72.60;;;;;;5115961;28;20190;-44
2022/02/19 06:49:08;;;;;;;8.60;1.60;;;4.10;72.80;;;;;;5115938;28;20199;-44
2022/02/19 06:51:34;;;;;;;6.33;1.60;;;4.10;72.40;;;;;;5118575;28;20180;-43
2022/02/19 06:54:00;;;;;;;7.17;1.43;;;4.10;72.50;;;;;;5115908;28;20192;-42
2022/02/19 06:56:26;;;;;;;6.27;1.50;;;4.20;72.30;;;;;;5117305;28;20176;-42
2022/02/19 06:58:55;;;;;;;6.10;1.77;;;4.40;72.20;;;;;;5081202;28;20779;-45
2022/02/19 07:01:20;;;;;;;5.67;1.67;;;4.30;71.70;;;;;;5098817;28;20453;-42
2022/02/19 07:03:46;;;;;;;7.03;2.47;;;4.30;71.70;;;;;;5115162;28;20422;-42
2022/02/19 07:06:11;;;;;;;8.77;1.97;;;4.30;71.90;;;;;;5100046;28;20211;-43
2022/02/19 07:08:37;;;;;;;8.07;2.17;;;4.40;72.00;;;;;;5119712;28;20208;-45
2022/02/19 07:11:03;;;;;;;5.70;1.90;;;4.60;71.80;;;;;;5103726;28;20258;-44
2022/02/19 07:13:29;;;;;;;6.33;2.67;;;4.80;70.50;;;;;;5102336;28;20219;-44
2022/02/19 07:15:54;;;;;;;4.47;1.93;;;5.20;69.80;;;;;;5103620;28;20769;-43
2022/02/19 07:18:21;;;;;;;4.37;1.87;;;5.40;69.20;;;;;;5121739;28;20289;-41
2022/02/19 07:20:47;;;;;;;5.00;1.80;;;5.40;68.70;;;;;;5120147;28;20180;-43
2022/02/19 07:23:13;;;;;;;8.27;3.00;;;5.40;68.60;;;;;;5121559;28;20460;-43
2022/02/19 07:25:40;;;;;;;4.43;2.50;;;5.20;68.60;;;;;;5103158;28;20429;-44
2022/02/19 07:28:06;;;;;;;5.50;1.50;;;5.30;68.90;;;;;;5121920;28;20508;-44
2022/02/19 07:30:33;;;;;;;6.73;1.67;;;5.60;69.30;;;;;;5119986;28;20440;-44
2022/02/19 07:32:59;;;;;;;5.50;1.70;;;6.00;68.00;;;;;;5120230;28;20465;-43
2022/02/19 07:35:25;;;;;;;4.77;2.00;;;6.40;67.00;;;;;;5120648;28;20802;-43
2022/02/19 07:37:51;;;;;;;5.83;1.60;;;6.70;66.30;;;;;;5120400;28;20251;-42
2022/02/19 07:40:17;;;;;;;6.23;1.77;;;7.20;64.80;;;;;;5117913;28;20418;-45
2022/02/19 07:42:42;;;;;;;3.90;1.60;;;7.50;63.90;;;;;;5117266;28;20834;-42
2022/02/19 07:45:08;;;;;;;5.50;1.90;;;7.30;63.70;;;;;;5115044;28;20270;-43
2022/02/19 07:47:34;;;;;;;6.17;1.97;;;7.20;63.40;;;;;;5117806;28;20180;-43
2022/02/19 07:58:22;;;;;;;7.20;1.90;;;7.10;62.60;;;;;;5120473;28;20460;-43
2022/02/19 08:00:53;;;;;;;6.47;2.13;;;7.10;63.90;;;;;;5119836;28;20434;-42
2022/02/19 08:03:21;;;;;;;8.10;1.83;;;6.90;64.20;;;;;;5102177;28;20681;-41
2022/02/19 08:05:47;;;;;;;6.67;1.73;;;6.90;64.30;;;;;;5101395;28;20441;-42
2022/02/19 08:08:12;;;;;;;6.10;1.70;;;6.70;64.70;;;;;;5102203;28;20642;-43
2022/02/19 08:10:38;;;;;;;8.03;1.77;;;6.40;65.30;;;;;;5116965;28;20444;-43
2022/02/19 08:13:07;;;;;;;4.83;1.50;;;6.40;66.10;;;;;;5083955;28;20193;-43
2022/02/19 08:15:34;;;;;;;6.73;1.77;;;6.80;65.40;;;;;;5117028;28;20494;-44
2022/02/19 08:18:00;;;;;;;7.00;2.60;;;7.00;65.30;;;;;;5116618;28;20457;-45
2022/02/19 08:20:26;;;;;;;4.13;1.47;;;7.80;63.60;;;;;;5116720;28;20510;-46
2022/02/19 08:22:51;;;;;;;6.07;1.77;;;8.50;62.30;;;;;;5118673;28;20560;-43
2022/02/19 08:25:17;;;;;;;5.60;1.80;;;9.10;60.10;;;;;;5117527;28;20237;-43
2022/02/19 08:27:43;;;;;;;6.57;1.93;;;9.90;59.00;;;;;;5116863;28;20229;-42
2022/02/19 08:30:09;;;;;;;5.53;1.77;;;10.80;56.30;;;;;;5117159;28;20197;-42
2022/02/19 08:32:35;;;;;;;5.63;1.77;;;11.70;53.80;;;;;;5101401;28;20311;-43
2022/02/19 08:35:00;;;;;;;6.90;2.20;;;11.50;52.70;;;;;;5115410;28;20995;-43
2022/02/19 08:37:26;;;;;;;4.80;1.63;;;11.20;52.50;;;;;;5118034;28;20217;-43
2022/02/19 08:39:52;;;;;;;6.23;2.53;;;11.40;51.80;;;;;;5118325;28;20926;-43
2022/02/19 08:42:17;;;;;;;7.13;1.70;;;11.00;51.80;;;;;;5117427;28;20184;-43
2022/02/19 08:44:43;;;;;;;4.70;2.57;;;11.00;51.40;;;;;;5116520;28;20177;-44
2022/02/19 08:47:09;;;;;;;7.40;1.80;;;11.10;51.10;;;;;;5099677;28;20188;-44
2022/02/19 08:49:35;;;;;;;13.67;2.47;;;11.40;50.40;;;;;;5119410;28;20203;-44
2022/02/19 08:52:01;;;;;;;6.23;1.40;;;11.70;49.60;;;;;;5100370;28;20190;-45
2022/02/19 08:54:28;;;;;;;6.97;1.80;;;12.00;50.30;;;;;;5118585;28;20412;-46
2022/02/19 08:56:54;;;;;;;7.30;1.93;;;12.60;48.20;;;;;;5083043;28;20231;-44
2022/02/19 08:59:21;;;;;;;7.10;2.00;;;12.00;46.90;;;;;;5119478;28;20415;-42
2022/02/19 09:01:47;;;;;;;8.40;2.23;;;12.20;50.40;;;;;;5118360;28;20425;-40
2022/02/19 09:04:13;;;;;;;7.67;2.10;;;13.40;51.10;;;;;;5119394;28;20799;-42
2022/02/19 09:06:38;;;;;;;4.27;1.60;;;13.70;47.10;;;;;;5117892;28;20176;-41
2022/02/19 09:09:06;;;;;;;9.03;2.10;;;12.50;47.20;;;;;;5101634;28;20399;-42
2022/02/19 09:11:35;;;;;;;8.73;1.63;;;13.00;49.60;;;;;;5100616;28;20188;-43
2022/02/19 09:14:02;;;;;;;4.83;1.50;;;13.90;49.40;;;;;;5097612;28;20706;-42
2022/02/19 09:16:29;;;;;;;6.77;2.17;;;14.50;45.20;;;;;;5116847;28;20424;-43
2022/02/19 09:18:55;;;;;;;6.10;1.83;;;14.20;44.70;;;;;;5115619;28;20414;-55
2022/02/19 09:21:22;;;;;;;4.87;1.90;;;13.40;45.80;;;;;;5117384;28;20410;-42
2022/02/19 09:23:47;;;;;;;4.87;1.40;;;13.40;46.60;;;;;;5116348;28;20522;-42
2022/02/19 09:26:14;;;;;;;9.13;1.90;;;13.20;45.30;;;;;;5099964;28;20477;-42
2022/02/19 09:28:40;;;;;;;4.97;1.67;;;13.20;46.50;;;;;;5117173;28;20181;-42
2022/02/19 09:31:05;;;;;;;3.60;1.40;;;13.80;45.60;;;;;;5118167;28;20410;-43
2022/02/19 09:33:31;;;;;;;3.10;1.23;;;13.90;43.40;;;;;;5118899;28;20208;-41
2022/02/19 09:35:57;;;;;;;6.30;1.77;;;13.70;42.10;;;;;;5117711;28;20192;-43
2022/02/19 09:38:23;;;;;;;6.57;1.67;;;12.70;42.00;;;;;;5118447;28;20295;-45
2022/02/19 09:40:49;;;;;;;6.70;1.60;;;12.80;42.20;;;;;;5116659;28;20828;-43
2022/02/19 09:43:18;;;;;;;6.80;1.83;;;11.20;42.90;;;;;;5100135;28;20595;-43
2022/02/19 09:45:47;;;;;;;4.60;1.37;;;10.90;44.60;;;;;;5117430;28;20775;-43
2022/02/19 09:48:15;;;;;;;3.00;1.20;;;11.60;44.60;;;;;;5117012;28;20521;-43
2022/02/19 09:50:41;;;;;;;8.53;1.80;;;12.50;43.80;;;;;;5115948;28;20406;-43
2022/02/19 09:53:07;;;;;;;3.70;1.37;;;13.80;43.10;;;;;;5099945;28;20406;-45
2022/02/19 09:55:33;;;;;;;4.30;1.50;;;13.60;42.00;;;;;;5099825;28;20171;-43
2022/02/19 09:58:00;;;;;;;5.57;1.80;;;14.50;41.80;;;;;;5113583;28;20344;-43
2022/02/19 10:00:43;;;;;;;3.50;1.33;;;14.90;40.60;;;;;;5099016;28;20413;-42
2022/02/19 10:03:12;;;;;;;6.50;1.67;;;15.70;40.00;;;;;;5114964;28;20412;-43
2022/02/19 10:05:39;;;;;;;3.27;1.60;;;15.00;39.50;;;;;;5116365;27;20482;-43
2022/02/19 10:08:10;;;;;;;4.90;1.67;;;14.80;40.70;;;;;;5135513;27;20433;-44
2022/02/19 10:10:46;;;;;;;6.93;2.00;;;13.70;40.80;;;;;;5136922;27;20420;-44
2022/02/19 10:13:36;;;;;;;5.43;1.87;;;12.70;41.60;;;;;;5134971;27;20693;-42
2022/02/19 10:16:04;;;;;;;4.90;1.63;;;13.20;42.80;;;;;;5137051;27;20418;-44
2022/02/19 10:18:42;;;;;;;7.30;2.20;;;12.70;41.60;;;;;;5135717;27;20555;-43
2022/02/19 10:21:24;;;;;;;5.93;1.37;;;11.80;42.40;;;;;;5137491;27;20412;-45
2022/02/19 10:23:54;;;;;;;5.33;1.97;;;11.70;43.40;;;;;;5138128;27;20470;-44
2022/02/19 10:26:21;;;;;;;3.33;1.50;;;11.80;43.30;;;;;;5138146;27;20405;-43
2022/02/19 10:29:01;;;;;;;5.47;1.60;;;11.50;42.50;;;;;;5136010;27;20489;-43
2022/02/19 10:31:27;;;;;;;6.00;1.67;;;11.00;42.20;;;;;;5120747;28;20421;-41
2022/02/19 10:34:07;;;;;;;5.43;1.40;;;10.70;42.30;;;;;;5136875;27;20431;-45
2022/02/19 10:36:50;;;;;;;5.00;1.40;;;10.70;43.10;;;;;;5138175;27;20413;-41
2022/02/19 10:39:44;;;;;;;5.27;1.50;;;10.60;43.70;;;;;;5134967;27;20443;-42
2022/02/19 10:42:10;;;;;;;3.03;1.33;;;11.40;43.70;;;;;;5139397;27;20432;-44
2022/02/19 10:44:36;;;;;;;2.73;1.50;;;12.20;42.80;;;;;;5124573;27;20421;-44
2022/02/19 10:47:20;;;;;;;3.73;1.43;;;12.50;40.90;;;;;;5142563;27;20232;-41
2022/02/19 10:50:22;;;;;;;7.17;2.27;;;12.70;41.90;;;;;;5124257;27;20839;-42
2022/02/19 10:52:55;;;;;;;3.17;1.20;;;12.20;41.70;;;;;;5023779;28;20418;-42
2022/02/19 10:55:27;;;;;;;6.30;1.80;;;12.60;41.30;;;;;;5130601;27;20421;-42
2022/02/19 10:57:55;;;;;;;2.70;1.40;;;13.50;40.80;;;;;;5141741;27;20471;-41
2022/02/19 11:00:22;;;;;;;6.77;2.30;;;13.90;39.70;;;;;;5125714;27;20425;-45
2022/02/19 11:02:49;;;;;;;6.90;2.10;;;15.10;39.40;;;;;;5141868;27;20423;-46
2022/02/19 11:05:18;;;;;;;3.23;1.57;;;15.30;37.90;;;;;;5144532;27;20413;-42
2022/02/19 11:07:45;;;;;;;4.33;1.80;;;15.20;38.60;;;;;;5142292;27;20415;-46
2022/02/19 11:10:13;;;;;;;4.30;2.10;;;16.20;37.90;;;;;;5144929;27;20489;-44
2022/02/19 11:12:39;;;;;;;3.97;2.03;;;16.70;37.90;;;;;;5140430;27;20583;-43
2022/02/19 11:15:06;;;;;;;5.43;2.97;;;18.20;37.20;;;;;;5144043;27;20492;-43
2022/02/19 11:17:34;;;;;;;3.27;1.57;;;18.30;35.30;;;;;;5141553;27;20823;-44
2022/02/19 11:20:08;;;;;;;4.03;2.63;;;17.70;34.80;;;;;;5142808;27;20419;-43
2022/02/19 11:22:35;;;;;;;3.63;1.43;;;18.00;33.20;;;;;;5123864;27;20455;-44
2022/02/19 11:25:04;;;;;;;3.50;1.63;;;18.00;33.10;;;;;;5125513;27;20412;-45
2022/02/19 11:27:34;;;;;;;4.73;1.77;;;17.10;32.40;;;;;;5126767;27;20415;-42
2022/02/19 11:30:06;;;;;;;3.87;1.43;;;16.80;33.80;;;;;;5125286;27;20497;-43
2022/02/19 11:32:35;;;;;;;4.27;1.20;;;15.70;34.20;;;;;;5142249;27;20472;-46
2022/02/19 11:35:00;;;;;;;4.47;1.60;;;15.90;34.10;;;;;;5143918;27;20416;-43
2022/02/19 11:37:26;;;;;;;5.10;2.77;;;16.70;34.40;;;;;;5144056;27;20727;-43
2022/02/19 11:40:14;;;;;;;5.43;3.07;;;15.70;34.60;;;;;;5142213;27;20175;-43
2022/02/19 11:42:49;;;;;;;3.07;1.87;;;15.30;35.20;;;;;;5123770;27;20417;-41
2022/02/19 11:45:29;;;;;;;4.97;2.03;;;15.40;34.50;;;;;;5126400;27;20411;-43
2022/02/19 11:48:14;;;;;;;4.83;2.13;;;15.30;34.40;;;;;;5124012;27;20496;-42
2022/02/19 11:50:43;;;;;;;8.10;2.60;;;16.10;35.60;;;;;;5142925;27;20416;-43
2022/02/19 11:53:09;;;;;;;6.63;2.80;;;16.90;34.60;;;;;;5120515;27;20998;-42
2022/02/19 11:55:45;;;;;;;4.60;2.07;;;16.90;34.50;;;;;;5121593;27;20504;-45
2022/02/19 11:58:12;;;;;;;5.77;2.70;;;16.10;33.10;;;;;;5139830;27;20211;-42
2022/02/19 12:00:45;;;;;;;4.17;1.90;;;14.80;33.70;;;;;;5140600;27;20408;-42
2022/02/19 12:03:34;;;;;;;3.07;1.23;;;13.10;34.60;;;;;;5136621;27;20421;-43
2022/02/19 12:06:24;;;;;;;4.10;1.27;;;11.90;35.30;;;;;;5138328;27;20408;-40
2022/02/19 12:08:52;;;;;;;3.53;1.20;;;11.00;36.30;;;;;;5136707;27;20884;-41
2022/02/19 12:11:23;;;;;;;3.20;1.40;;;11.10;37.80;;;;;;5139012;27;20409;-42
2022/02/19 12:13:59;;;;;;;2.70;1.00;;;12.10;37.20;;;;;;5103298;27;20421;-44
2022/02/19 12:16:28;;;;;;;4.70;1.33;;;12.50;36.30;;;;;;5139396;27;20769;-43
2022/02/19 12:18:58;;;;;;;5.73;1.80;;;13.70;36.10;;;;;;5139466;27;20526;-42
2022/02/19 12:21:41;;;;;;;3.60;1.30;;;14.40;34.70;;;;;;5120485;27;20636;-45
2022/02/19 12:24:10;;;;;;;4.93;1.60;;;14.40;34.80;;;;;;5139466;27;20418;-42
2022/02/19 12:26:54;;;;;;;2.60;1.40;;;15.70;34.30;;;;;;5140786;27;20462;-42
2022/02/19 12:29:25;;;;;;;5.20;1.53;;;16.90;32.90;;;;;;5138841;27;20429;-41
2022/02/19 12:32:07;;;;;;;4.23;1.70;;;17.20;32.20;;;;;;5140078;27;20544;-45
2022/02/19 12:34:39;;;;;;;6.33;1.47;;;17.00;31.70;;;;;;5121376;27;20429;-44
2022/02/19 12:37:14;;;;;;;3.90;1.43;;;16.20;31.20;;;;;;5139731;27;20465;-44
2022/02/19 12:39:51;;;;;;;4.07;1.80;;;17.10;32.20;;;;;;5118986;27;20456;-43
2022/02/19 12:42:21;;;;;;;3.83;1.53;;;17.00;31.30;;;;;;5137549;27;20466;-42
2022/02/19 12:44:48;;;;;;;3.07;1.50;;;16.40;31.50;;;;;;5135685;27;20450;-46
2022/02/19 12:47:18;;;;;;;4.43;1.20;;;15.80;32.10;;;;;;5116242;27;20842;-43
2022/02/19 12:49:43;;;;;;;3.60;1.50;;;15.90;32.50;;;;;;5136193;27;20536;-42
2022/02/19 12:52:09;;;;;;;3.93;1.43;;;16.30;32.20;;;;;;5119266;27;20483;-44
2022/02/19 12:54:37;;;;;;;4.50;1.60;;;16.50;31.70;;;;;;5135171;27;20191;-42
2022/02/19 12:57:07;;;;;;;4.60;1.63;;;15.50;32.00;;;;;;5136634;27;20551;-44
2022/02/19 12:59:34;;;;;;;3.50;1.63;;;15.20;32.90;;;;;;5099558;27;20710;-42
2022/02/19 13:02:05;;;;;;;2.70;1.50;;;15.20;33.70;;;;;;5118933;27;20680;-41